This is the latest recevied weather packets stored in our database for station/object DB0MI. If no packets are shown the sender has not sent any weather packets the latest 10 day(s).
| Time | Temp. | Humidity | Pressure | Rain* | Wind** | Luminosity | Snow |
|---|---|---|---|---|---|---|---|
| 1777297930 | 18.89° C | 34% | 1020.3 hPa | 0 mm | - | - | - |
| 1777296130 | 18.33° C | 34% | 1020.8 hPa | 0 mm | - | - | - |
| 1777295530 | 18.33° C | 36% | 1020.9 hPa | 0 mm | - | - | - |
| 1777294930 | 17.78° C | 37% | 1021 hPa | 0 mm | - | - | - |
| 1777293130 | 17.78° C | 35% | 1021.1 hPa | 0 mm | - | - | - |
| 1777292530 | 17.78° C | 36% | 1021.3 hPa | 0 mm | - | - | - |
| 1777291930 | 18.33° C | 35% | 1021.2 hPa | 0 mm | - | - | - |
| 1777290730 | 18.89° C | 35% | 1021.2 hPa | 0 mm | - | - | - |
| 1777288930 | 18.89° C | 35% | 1021.7 hPa | 0 mm | - | - | - |
| 1777288330 | 18.89° C | 35% | 1021.5 hPa | 0 mm | - | - | - |
| 1777287730 | 20.56° C | 35% | 1021.5 hPa | 0 mm | - | - | - |
| 1777285930 | 20° C | 35% | 1021.5 hPa | 0 mm | - | - | - |
| 1777285330 | 20° C | 36% | 1021.8 hPa | 0 mm | - | - | - |
| 1777284730 | 20° C | 36% | 1021.5 hPa | 0 mm | - | - | - |
| 1777284130 | 20° C | 37% | 1021.6 hPa | 0 mm | - | - | - |
| 1777281730 | 17.78° C | 42% | 1021 hPa | 0 mm | - | - | - |
| 1777281130 | 17.78° C | 44% | 1021.3 hPa | 0 mm | - | - | - |
| 1777279930 | 16.67° C | 47% | 1021.5 hPa | 0 mm | - | - | - |
| 1777279330 | 15.56° C | 48% | 1021.4 hPa | 0 mm | - | - | - |
| 1777278730 | 15° C | 49% | 1021.8 hPa | 0 mm | - | - | - |
| 1777278130 | 15° C | 49% | 1021.7 hPa | 0 mm | - | - | - |
| 1777277530 | 13.89° C | 52% | 1021.7 hPa | 0 mm | - | - | - |
| 1777276930 | 12.22° C | 54% | 1021.8 hPa | 0 mm | - | - | - |
| 1777275130 | 11.11° C | 56% | 1021.9 hPa | 0 mm | - | - | - |
| 1777274531 | 10.56° C | 57% | 1021.8 hPa | 0 mm | - | - | - |
* Rain latest hour (hover to see other rain measurements)
** Current wind speed in m/s (hover to see current wind gust speed)